sensor_id;sensor_type;location;lat;lon;timestamp;temperature;humidity
19242;DHT22;9755;47.790;9.620;2022-11-20T00:01:08;3.20;99.90
19242;DHT22;9755;47.790;9.620;2022-11-20T00:03:35;3.30;99.90
19242;DHT22;9755;47.790;9.620;2022-11-20T00:06:05;3.40;99.90
19242;DHT22;9755;47.790;9.620;2022-11-20T00:08:32;3.50;99.90
19242;DHT22;9755;47.790;9.620;2022-11-20T00:11:03;3.60;99.90
19242;DHT22;9755;47.790;9.620;2022-11-20T00:13:30;3.70;99.90
19242;DHT22;9755;47.790;9.620;2022-11-20T00:15:57;3.70;99.90
19242;DHT22;9755;47.790;9.620;2022-11-20T00:18:25;3.70;99.90
19242;DHT22;9755;47.790;9.620;2022-11-20T00:20:52;3.70;99.90
19242;DHT22;9755;47.790;9.620;2022-11-20T00:23:20;3.70;99.90
19242;DHT22;9755;47.790;9.620;2022-11-20T00:25:47;3.70;99.90
19242;DHT22;9755;47.790;9.620;2022-11-20T00:28:14;3.70;99.90
19242;DHT22;9755;47.790;9.620;2022-11-20T00:30:41;3.70;99.90
19242;DHT22;9755;47.790;9.620;2022-11-20T00:33:08;3.80;99.90
19242;DHT22;9755;47.790;9.620;2022-11-20T00:35:35;3.80;99.90
19242;DHT22;9755;47.790;9.620;2022-11-20T00:38:02;3.70;99.90
19242;DHT22;9755;47.790;9.620;2022-11-20T00:40:31;3.80;99.90
19242;DHT22;9755;47.790;9.620;2022-11-20T00:42:58;3.70;99.90
19242;DHT22;9755;47.790;9.620;2022-11-20T00:45:25;3.80;99.90
19242;DHT22;9755;47.790;9.620;2022-11-20T00:47:52;3.90;99.90
19242;DHT22;9755;47.790;9.620;2022-11-20T00:50:19;4.00;99.90
19242;DHT22;9755;47.790;9.620;2022-11-20T00:52:46;4.00;99.90
19242;DHT22;9755;47.790;9.620;2022-11-20T00:55:13;4.00;99.90
19242;DHT22;9755;47.790;9.620;2022-11-20T00:57:41;4.10;99.90
19242;DHT22;9755;47.790;9.620;2022-11-20T01:00:09;4.10;99.90
19242;DHT22;9755;47.790;9.620;2022-11-20T01:02:36;4.10;99.90
19242;DHT22;9755;47.790;9.620;2022-11-20T01:05:04;4.10;99.90
19242;DHT22;9755;47.790;9.620;2022-11-20T01:07:32;4.20;99.90
19242;DHT22;9755;47.790;9.620;2022-11-20T01:09:59;4.20;99.90
19242;DHT22;9755;47.790;9.620;2022-11-20T01:12:26;4.20;99.90
19242;DHT22;9755;47.790;9.620;2022-11-20T01:14:54;4.30;99.90
19242;DHT22;9755;47.790;9.620;2022-11-20T01:17:21;4.40;99.90
19242;DHT22;9755;47.790;9.620;2022-11-20T01:19:49;4.40;99.90
19242;DHT22;9755;47.790;9.620;2022-11-20T01:22:16;4.40;99.90
19242;DHT22;9755;47.790;9.620;2022-11-20T01:24:43;4.40;99.90
19242;DHT22;9755;47.790;9.620;2022-11-20T01:27:10;4.40;99.90
19242;DHT22;9755;47.790;9.620;2022-11-20T01:29:37;4.40;99.90
19242;DHT22;9755;47.790;9.620;2022-11-20T01:32:06;4.50;99.90
19242;DHT22;9755;47.790;9.620;2022-11-20T01:34:33;4.50;99.90
19242;DHT22;9755;47.790;9.620;2022-11-20T01:37:00;4.50;99.90
19242;DHT22;9755;47.790;9.620;2022-11-20T01:39:27;4.50;99.90
19242;DHT22;9755;47.790;9.620;2022-11-20T01:41:55;4.50;99.90
19242;DHT22;9755;47.790;9.620;2022-11-20T01:44:52;4.50;99.90
19242;DHT22;9755;47.790;9.620;2022-11-20T01:47:31;4.60;99.90
19242;DHT22;9755;47.790;9.620;2022-11-20T01:50:04;4.60;99.90
19242;DHT22;9755;47.790;9.620;2022-11-20T01:52:36;4.60;99.90
19242;DHT22;9755;47.790;9.620;2022-11-20T01:55:06;4.60;99.90
19242;DHT22;9755;47.790;9.620;2022-11-20T01:57:35;4.60;99.90
19242;DHT22;9755;47.790;9.620;2022-11-20T02:00:06;4.60;99.90
19242;DHT22;9755;47.790;9.620;2022-11-20T02:02:35;4.60;99.90
19242;DHT22;9755;47.790;9.620;2022-11-20T02:05:12;4.60;99.90
19242;DHT22;9755;47.790;9.620;2022-11-20T02:07:41;4.60;99.90
19242;DHT22;9755;47.790;9.620;2022-11-20T02:10:08;4.60;99.90
19242;DHT22;9755;47.790;9.620;2022-11-20T02:12:35;4.60;99.90
19242;DHT22;9755;47.790;9.620;2022-11-20T02:15:20;4.60;99.90
19242;DHT22;9755;47.790;9.620;2022-11-20T02:17:48;4.60;99.90
19242;DHT22;9755;47.790;9.620;2022-11-20T02:20:15;4.60;99.90
19242;DHT22;9755;47.790;9.620;2022-11-20T02:22:47;4.60;99.90
19242;DHT22;9755;47.790;9.620;2022-11-20T02:25:17;4.60;99.90
19242;DHT22;9755;47.790;9.620;2022-11-20T02:27:45;4.60;99.90
19242;DHT22;9755;47.790;9.620;2022-11-20T02:30:12;4.50;99.90
19242;DHT22;9755;47.790;9.620;2022-11-20T02:32:40;4.60;99.90
19242;DHT22;9755;47.790;9.620;2022-11-20T02:35:09;4.60;99.90
19242;DHT22;9755;47.790;9.620;2022-11-20T02:37:38;4.70;99.90
19242;DHT22;9755;47.790;9.620;2022-11-20T02:40:07;4.70;99.90
19242;DHT22;9755;47.790;9.620;2022-11-20T02:42:35;4.70;99.90
19242;DHT22;9755;47.790;9.620;2022-11-20T02:45:02;4.70;99.90
19242;DHT22;9755;47.790;9.620;2022-11-20T02:47:30;4.70;99.90
19242;DHT22;9755;47.790;9.620;2022-11-20T02:49:57;4.70;99.90
19242;DHT22;9755;47.790;9.620;2022-11-20T02:52:24;4.70;99.90
19242;DHT22;9755;47.790;9.620;2022-11-20T02:54:51;4.80;99.90
19242;DHT22;9755;47.790;9.620;2022-11-20T02:57:18;4.80;99.90
19242;DHT22;9755;47.790;9.620;2022-11-20T02:59:47;4.80;99.90
19242;DHT22;9755;47.790;9.620;2022-11-20T03:02:14;4.80;99.90
19242;DHT22;9755;47.790;9.620;2022-11-20T03:04:41;4.70;99.90
19242;DHT22;9755;47.790;9.620;2022-11-20T03:07:08;4.70;99.90
19242;DHT22;9755;47.790;9.620;2022-11-20T03:09:35;4.80;99.90
19242;DHT22;9755;47.790;9.620;2022-11-20T03:12:03;4.80;99.90
19242;DHT22;9755;47.790;9.620;2022-11-20T03:14:30;4.80;99.90
19242;DHT22;9755;47.790;9.620;2022-11-20T03:16:58;4.80;99.90
19242;DHT22;9755;47.790;9.620;2022-11-20T03:19:25;4.80;99.90
19242;DHT22;9755;47.790;9.620;2022-11-20T03:21:52;4.80;99.90
19242;DHT22;9755;47.790;9.620;2022-11-20T03:24:19;4.80;99.90
19242;DHT22;9755;47.790;9.620;2022-11-20T03:26:46;4.80;99.90
19242;DHT22;9755;47.790;9.620;2022-11-20T03:29:13;4.80;99.90
19242;DHT22;9755;47.790;9.620;2022-11-20T03:31:41;4.80;99.90
19242;DHT22;9755;47.790;9.620;2022-11-20T03:34:11;4.80;99.90
19242;DHT22;9755;47.790;9.620;2022-11-20T03:36:39;4.80;99.90
19242;DHT22;9755;47.790;9.620;2022-11-20T03:39:06;4.80;99.90
19242;DHT22;9755;47.790;9.620;2022-11-20T03:41:36;4.80;99.90
19242;DHT22;9755;47.790;9.620;2022-11-20T03:44:06;4.80;99.90
19242;DHT22;9755;47.790;9.620;2022-11-20T03:46:34;4.80;99.90
19242;DHT22;9755;47.790;9.620;2022-11-20T03:49:01;4.80;81.90
19242;DHT22;9755;47.790;9.620;2022-11-20T03:51:30;4.70;56.70
19242;DHT22;9755;47.790;9.620;2022-11-20T03:53:59;4.80;9.00
19242;DHT22;9755;47.790;9.620;2022-11-20T03:56:28;4.70;1.00
19242;DHT22;9755;47.790;9.620;2022-11-20T03:58:55;4.80;1.00
19242;DHT22;9755;47.790;9.620;2022-11-20T04:01:25;4.70;1.00
19242;DHT22;9755;47.790;9.620;2022-11-20T04:03:53;4.70;1.00
19242;DHT22;9755;47.790;9.620;2022-11-20T04:06:22;4.80;1.00
19242;DHT22;9755;47.790;9.620;2022-11-20T04:08:51;4.80;1.00
19242;DHT22;9755;47.790;9.620;2022-11-20T04:11:22;4.70;1.00
19242;DHT22;9755;47.790;9.620;2022-11-20T04:13:51;4.70;1.00
19242;DHT22;9755;47.790;9.620;2022-11-20T04:16:19;4.80;1.00
19242;DHT22;9755;47.790;9.620;2022-11-20T04:18:46;4.70;1.00
19242;DHT22;9755;47.790;9.620;2022-11-20T04:21:13;4.70;1.00
19242;DHT22;9755;47.790;9.620;2022-11-20T04:23:40;4.70;1.00
19242;DHT22;9755;47.790;9.620;2022-11-20T04:26:10;4.70;1.00
19242;DHT22;9755;47.790;9.620;2022-11-20T04:28:38;4.70;1.00
19242;DHT22;9755;47.790;9.620;2022-11-20T04:31:07;4.70;1.00
19242;DHT22;9755;47.790;9.620;2022-11-20T04:33:35;4.70;1.00
19242;DHT22;9755;47.790;9.620;2022-11-20T04:36:04;4.70;1.00
19242;DHT22;9755;47.790;9.620;2022-11-20T04:38:32;4.70;1.00
19242;DHT22;9755;47.790;9.620;2022-11-20T04:40:59;4.70;1.00
19242;DHT22;9755;47.790;9.620;2022-11-20T04:43:29;4.70;1.00
19242;DHT22;9755;47.790;9.620;2022-11-20T04:45:57;4.70;1.00
19242;DHT22;9755;47.790;9.620;2022-11-20T04:48:25;4.60;1.00
19242;DHT22;9755;47.790;9.620;2022-11-20T04:50:53;4.70;1.00
19242;DHT22;9755;47.790;9.620;2022-11-20T04:53:20;4.60;1.00
19242;DHT22;9755;47.790;9.620;2022-11-20T04:55:48;4.70;1.00
19242;DHT22;9755;47.790;9.620;2022-11-20T04:58:16;4.70;1.00
19242;DHT22;9755;47.790;9.620;2022-11-20T05:00:44;4.70;1.00
19242;DHT22;9755;47.790;9.620;2022-11-20T05:03:11;4.70;1.00
19242;DHT22;9755;47.790;9.620;2022-11-20T05:05:38;4.70;1.00
19242;DHT22;9755;47.790;9.620;2022-11-20T05:08:05;4.60;1.00
19242;DHT22;9755;47.790;9.620;2022-11-20T05:10:32;4.60;1.00
19242;DHT22;9755;47.790;9.620;2022-11-20T05:12:59;4.60;1.00
19242;DHT22;9755;47.790;9.620;2022-11-20T05:15:26;4.60;1.00
19242;DHT22;9755;47.790;9.620;2022-11-20T05:17:55;4.60;1.00
19242;DHT22;9755;47.790;9.620;2022-11-20T05:20:22;4.50;1.00
19242;DHT22;9755;47.790;9.620;2022-11-20T05:22:49;4.40;1.00
19242;DHT22;9755;47.790;9.620;2022-11-20T05:25:16;4.30;1.00
19242;DHT22;9755;47.790;9.620;2022-11-20T05:27:43;4.20;1.00
19242;DHT22;9755;47.790;9.620;2022-11-20T05:30:11;4.10;1.00
19242;DHT22;9755;47.790;9.620;2022-11-20T05:32:38;4.20;1.00
19242;DHT22;9755;47.790;9.620;2022-11-20T05:35:07;4.30;1.00
19242;DHT22;9755;47.790;9.620;2022-11-20T05:37:34;4.30;1.00
19242;DHT22;9755;47.790;9.620;2022-11-20T05:40:01;4.20;1.00
19242;DHT22;9755;47.790;9.620;2022-11-20T05:42:30;4.20;1.00
19242;DHT22;9755;47.790;9.620;2022-11-20T05:44:57;4.10;1.00
19242;DHT22;9755;47.790;9.620;2022-11-20T05:47:25;4.10;1.00
19242;DHT22;9755;47.790;9.620;2022-11-20T05:49:52;4.00;1.00
19242;DHT22;9755;47.790;9.620;2022-11-20T05:52:20;4.00;1.00
19242;DHT22;9755;47.790;9.620;2022-11-20T05:54:47;3.90;34.30
19242;DHT22;9755;47.790;9.620;2022-11-20T05:57:14;4.00;99.90
19242;DHT22;9755;47.790;9.620;2022-11-20T05:59:42;4.00;99.90
19242;DHT22;9755;47.790;9.620;2022-11-20T06:02:09;4.10;99.90
19242;DHT22;9755;47.790;9.620;2022-11-20T06:04:36;4.10;99.90
19242;DHT22;9755;47.790;9.620;2022-11-20T06:07:05;4.20;99.90
19242;DHT22;9755;47.790;9.620;2022-11-20T06:09:34;4.30;99.90
19242;DHT22;9755;47.790;9.620;2022-11-20T06:12:01;4.30;42.20
19242;DHT22;9755;47.790;9.620;2022-11-20T06:14:28;4.40;1.00
19242;DHT22;9755;47.790;9.620;2022-11-20T06:16:55;4.40;1.00
19242;DHT22;9755;47.790;9.620;2022-11-20T06:19:22;4.50;1.00
19242;DHT22;9755;47.790;9.620;2022-11-20T06:21:49;4.60;1.00
19242;DHT22;9755;47.790;9.620;2022-11-20T06:24:16;4.60;1.00
19242;DHT22;9755;47.790;9.620;2022-11-20T06:26:45;4.70;1.00
19242;DHT22;9755;47.790;9.620;2022-11-20T06:29:12;4.70;1.00
19242;DHT22;9755;47.790;9.620;2022-11-20T06:31:39;4.70;99.90
19242;DHT22;9755;47.790;9.620;2022-11-20T06:34:08;4.80;99.90
19242;DHT22;9755;47.790;9.620;2022-11-20T06:36:35;4.80;99.90
19242;DHT22;9755;47.790;9.620;2022-11-20T06:39:02;4.90;61.20
19242;DHT22;9755;47.790;9.620;2022-11-20T06:41:29;4.90;8.80
19242;DHT22;9755;47.790;9.620;2022-11-20T06:43:58;4.90;1.00
19242;DHT22;9755;47.790;9.620;2022-11-20T06:46:25;4.90;1.00
19242;DHT22;9755;47.790;9.620;2022-11-20T06:48:52;4.90;99.90
19242;DHT22;9755;47.790;9.620;2022-11-20T06:51:19;4.90;99.90
19242;DHT22;9755;47.790;9.620;2022-11-20T06:53:47;5.00;52.60
19242;DHT22;9755;47.790;9.620;2022-11-20T06:56:14;5.00;1.00
19242;DHT22;9755;47.790;9.620;2022-11-20T06:58:41;5.00;1.00
19242;DHT22;9755;47.790;9.620;2022-11-20T07:01:12;5.00;1.00
19242;DHT22;9755;47.790;9.620;2022-11-20T07:03:40;5.00;1.00
19242;DHT22;9755;47.790;9.620;2022-11-20T07:06:07;5.10;99.90
19242;DHT22;9755;47.790;9.620;2022-11-20T07:08:35;5.10;97.00
19242;DHT22;9755;47.790;9.620;2022-11-20T07:11:04;5.10;1.00
19242;DHT22;9755;47.790;9.620;2022-11-20T07:13:31;5.20;1.00
19242;DHT22;9755;47.790;9.620;2022-11-20T07:16:00;5.20;1.00
19242;DHT22;9755;47.790;9.620;2022-11-20T07:18:29;5.20;1.00
19242;DHT22;9755;47.790;9.620;2022-11-20T07:20:59;5.20;1.00
19242;DHT22;9755;47.790;9.620;2022-11-20T07:23:26;5.20;1.00
19242;DHT22;9755;47.790;9.620;2022-11-20T07:25:53;5.30;99.90
19242;DHT22;9755;47.790;9.620;2022-11-20T07:28:20;5.30;99.90
19242;DHT22;9755;47.790;9.620;2022-11-20T07:30:50;5.40;1.00
19242;DHT22;9755;47.790;9.620;2022-11-20T07:33:17;5.40;1.00
19242;DHT22;9755;47.790;9.620;2022-11-20T07:35:45;5.40;1.00
19242;DHT22;9755;47.790;9.620;2022-11-20T07:38:13;5.40;1.00
19242;DHT22;9755;47.790;9.620;2022-11-20T07:40:40;5.50;1.00
19242;DHT22;9755;47.790;9.620;2022-11-20T07:43:07;5.50;1.00
19242;DHT22;9755;47.790;9.620;2022-11-20T07:45:34;5.50;1.00
19242;DHT22;9755;47.790;9.620;2022-11-20T07:48:01;5.50;99.90
19242;DHT22;9755;47.790;9.620;2022-11-20T07:50:28;5.60;99.90
19242;DHT22;9755;47.790;9.620;2022-11-20T07:53:02;5.60;1.00
19242;DHT22;9755;47.790;9.620;2022-11-20T07:55:29;5.70;1.00
19242;DHT22;9755;47.790;9.620;2022-11-20T07:57:56;5.80;1.00
19242;DHT22;9755;47.790;9.620;2022-11-20T08:00:24;5.90;1.00
19242;DHT22;9755;47.790;9.620;2022-11-20T08:02:51;5.90;99.90
19242;DHT22;9755;47.790;9.620;2022-11-20T08:05:19;5.90;1.00
19242;DHT22;9755;47.790;9.620;2022-11-20T08:07:46;5.90;99.90
19242;DHT22;9755;47.790;9.620;2022-11-20T08:10:15;5.90;99.90
19242;DHT22;9755;47.790;9.620;2022-11-20T08:12:46;5.90;99.90
19242;DHT22;9755;47.790;9.620;2022-11-20T08:15:31;6.00;99.90
19242;DHT22;9755;47.790;9.620;2022-11-20T08:18:03;6.00;43.60
19242;DHT22;9755;47.790;9.620;2022-11-20T08:20:30;6.00;99.90
19242;DHT22;9755;47.790;9.620;2022-11-20T08:23:00;5.90;99.90
19242;DHT22;9755;47.790;9.620;2022-11-20T08:25:29;5.90;99.90
19242;DHT22;9755;47.790;9.620;2022-11-20T08:28:00;5.90;99.90
19242;DHT22;9755;47.790;9.620;2022-11-20T08:30:27;6.00;99.90
19242;DHT22;9755;47.790;9.620;2022-11-20T08:32:54;6.00;1.00
19242;DHT22;9755;47.790;9.620;2022-11-20T08:35:26;5.90;1.00
19242;DHT22;9755;47.790;9.620;2022-11-20T08:37:53;5.90;1.00
19242;DHT22;9755;47.790;9.620;2022-11-20T08:40:20;5.90;99.90
19242;DHT22;9755;47.790;9.620;2022-11-20T08:42:50;6.00;8.60
19242;DHT22;9755;47.790;9.620;2022-11-20T08:45:18;6.00;1.00
19242;DHT22;9755;47.790;9.620;2022-11-20T08:47:45;6.00;1.00
19242;DHT22;9755;47.790;9.620;2022-11-20T08:50:14;6.00;1.00
19242;DHT22;9755;47.790;9.620;2022-11-20T08:52:41;6.00;1.00
19242;DHT22;9755;47.790;9.620;2022-11-20T08:55:09;6.10;1.00
19242;DHT22;9755;47.790;9.620;2022-11-20T08:57:36;6.10;99.90
19242;DHT22;9755;47.790;9.620;2022-11-20T09:00:07;6.10;99.90
19242;DHT22;9755;47.790;9.620;2022-11-20T09:02:34;6.20;1.00
19242;DHT22;9755;47.790;9.620;2022-11-20T09:05:01;6.20;99.90
19242;DHT22;9755;47.790;9.620;2022-11-20T09:07:29;6.30;99.90
19242;DHT22;9755;47.790;9.620;2022-11-20T09:09:56;6.40;1.00
19242;DHT22;9755;47.790;9.620;2022-11-20T09:12:23;6.60;1.00
19242;DHT22;9755;47.790;9.620;2022-11-20T09:14:50;6.80;1.00
19242;DHT22;9755;47.790;9.620;2022-11-20T09:17:19;6.70;99.90
19242;DHT22;9755;47.790;9.620;2022-11-20T09:19:46;6.70;99.90
19242;DHT22;9755;47.790;9.620;2022-11-20T09:22:14;6.70;99.90
19242;DHT22;9755;47.790;9.620;2022-11-20T09:24:41;6.60;99.90
19242;DHT22;9755;47.790;9.620;2022-11-20T09:27:08;6.50;99.90
19242;DHT22;9755;47.790;9.620;2022-11-20T09:29:35;6.50;99.90
19242;DHT22;9755;47.790;9.620;2022-11-20T09:32:02;6.60;99.90
19242;DHT22;9755;47.790;9.620;2022-11-20T09:34:31;6.70;99.90
19242;DHT22;9755;47.790;9.620;2022-11-20T09:36:58;6.80;99.90
19242;DHT22;9755;47.790;9.620;2022-11-20T09:39:25;6.80;1.00
19242;DHT22;9755;47.790;9.620;2022-11-20T09:42:05;6.80;1.00
19242;DHT22;9755;47.790;9.620;2022-11-20T09:45:01;6.70;1.00
19242;DHT22;9755;47.790;9.620;2022-11-20T09:47:39;6.80;1.00
19242;DHT22;9755;47.790;9.620;2022-11-20T09:50:23;6.80;1.00
19242;DHT22;9755;47.790;9.620;2022-11-20T09:53:04;6.80;1.00
19242;DHT22;9755;47.790;9.620;2022-11-20T09:55:32;6.90;1.00
19242;DHT22;9755;47.790;9.620;2022-11-20T09:58:00;7.00;1.00
19242;DHT22;9755;47.790;9.620;2022-11-20T10:00:29;7.20;1.00
19242;DHT22;9755;47.790;9.620;2022-11-20T10:02:59;7.30;1.00
19242;DHT22;9755;47.790;9.620;2022-11-20T10:05:33;7.40;1.00
19242;DHT22;9755;47.790;9.620;2022-11-20T10:08:10;7.50;99.90
19242;DHT22;9755;47.790;9.620;2022-11-20T10:10:42;7.40;1.00
19242;DHT22;9755;47.790;9.620;2022-11-20T10:13:20;7.40;99.90
19242;DHT22;9755;47.790;9.620;2022-11-20T10:16:24;7.60;99.90
19242;DHT22;9755;47.790;9.620;2022-11-20T10:19:06;7.80;99.90
19242;DHT22;9755;47.790;9.620;2022-11-20T10:21:49;7.90;99.90
19242;DHT22;9755;47.790;9.620;2022-11-20T10:24:43;7.90;99.90
19242;DHT22;9755;47.790;9.620;2022-11-20T10:27:38;7.80;99.90
19242;DHT22;9755;47.790;9.620;2022-11-20T10:30:09;7.70;99.90
19242;DHT22;9755;47.790;9.620;2022-11-20T10:32:39;7.70;99.90
19242;DHT22;9755;47.790;9.620;2022-11-20T10:35:16;7.60;99.90
19242;DHT22;9755;47.790;9.620;2022-11-20T10:37:49;7.60;99.90
19242;DHT22;9755;47.790;9.620;2022-11-20T10:40:23;7.60;99.90
19242;DHT22;9755;47.790;9.620;2022-11-20T10:42:56;7.60;90.60
19242;DHT22;9755;47.790;9.620;2022-11-20T10:45:39;7.70;99.90
19242;DHT22;9755;47.790;9.620;2022-11-20T10:48:15;7.90;93.00
19242;DHT22;9755;47.790;9.620;2022-11-20T10:50:54;7.90;1.00
19242;DHT22;9755;47.790;9.620;2022-11-20T10:53:36;7.90;1.00
19242;DHT22;9755;47.790;9.620;2022-11-20T10:56:11;7.90;6.60
19242;DHT22;9755;47.790;9.620;2022-11-20T10:58:49;8.00;1.00
19242;DHT22;9755;47.790;9.620;2022-11-20T11:01:20;8.10;1.00
19242;DHT22;9755;47.790;9.620;2022-11-20T11:03:49;8.30;1.00
19242;DHT22;9755;47.790;9.620;2022-11-20T11:06:24;8.30;1.00
19242;DHT22;9755;47.790;9.620;2022-11-20T11:08:53;8.30;1.00
19242;DHT22;9755;47.790;9.620;2022-11-20T11:11:25;8.40;1.00
19242;DHT22;9755;47.790;9.620;2022-11-20T11:13:53;8.50;1.00
19242;DHT22;9755;47.790;9.620;2022-11-20T11:16:30;8.60;1.00
19242;DHT22;9755;47.790;9.620;2022-11-20T11:19:04;8.60;1.00
19242;DHT22;9755;47.790;9.620;2022-11-20T11:21:31;8.40;1.00
19242;DHT22;9755;47.790;9.620;2022-11-20T11:24:02;8.40;1.00
19242;DHT22;9755;47.790;9.620;2022-11-20T11:26:30;8.30;1.00
19242;DHT22;9755;47.790;9.620;2022-11-20T11:28:58;8.20;1.00
19242;DHT22;9755;47.790;9.620;2022-11-20T11:31:27;8.10;1.00
19242;DHT22;9755;47.790;9.620;2022-11-20T11:34:04;8.10;1.00
19242;DHT22;9755;47.790;9.620;2022-11-20T11:36:33;8.00;1.00
19242;DHT22;9755;47.790;9.620;2022-11-20T11:39:04;7.90;1.00
19242;DHT22;9755;47.790;9.620;2022-11-20T11:41:33;7.90;1.00
19242;DHT22;9755;47.790;9.620;2022-11-20T11:44:17;7.90;1.00
19242;DHT22;9755;47.790;9.620;2022-11-20T11:47:03;7.90;1.00
19242;DHT22;9755;47.790;9.620;2022-11-20T11:49:31;7.80;1.00
19242;DHT22;9755;47.790;9.620;2022-11-20T11:52:04;7.70;99.90
19242;DHT22;9755;47.790;9.620;2022-11-20T11:54:39;7.50;1.00
19242;DHT22;9755;47.790;9.620;2022-11-20T11:57:14;7.50;1.00
19242;DHT22;9755;47.790;9.620;2022-11-20T11:59:53;7.30;47.10
19242;DHT22;9755;47.790;9.620;2022-11-20T12:02:29;7.20;99.90
19242;DHT22;9755;47.790;9.620;2022-11-20T12:05:02;7.10;99.90
19242;DHT22;9755;47.790;9.620;2022-11-20T12:07:38;7.10;1.00
19242;DHT22;9755;47.790;9.620;2022-11-20T12:10:20;7.20;1.00
19242;DHT22;9755;47.790;9.620;2022-11-20T12:12:52;7.20;1.00
19242;DHT22;9755;47.790;9.620;2022-11-20T12:15:27;7.30;1.00
19242;DHT22;9755;47.790;9.620;2022-11-20T12:17:55;7.30;99.90
19242;DHT22;9755;47.790;9.620;2022-11-20T12:20:25;7.40;39.50
19242;DHT22;9755;47.790;9.620;2022-11-20T12:22:56;7.40;99.90
19242;DHT22;9755;47.790;9.620;2022-11-20T12:25:29;7.50;1.00
19242;DHT22;9755;47.790;9.620;2022-11-20T12:28:27;7.40;1.00
19242;DHT22;9755;47.790;9.620;2022-11-20T12:31:10;7.40;1.00
19242;DHT22;9755;47.790;9.620;2022-11-20T12:33:57;7.30;7.40
19242;DHT22;9755;47.790;9.620;2022-11-20T12:36:36;7.30;1.00
19242;DHT22;9755;47.790;9.620;2022-11-20T12:39:20;7.20;1.00
19242;DHT22;9755;47.790;9.620;2022-11-20T12:42:01;7.20;1.00
19242;DHT22;9755;47.790;9.620;2022-11-20T12:45:16;7.20;99.90
19242;DHT22;9755;47.790;9.620;2022-11-20T12:47:56;7.20;1.00
19242;DHT22;9755;47.790;9.620;2022-11-20T12:50:35;7.30;1.00
19242;DHT22;9755;47.790;9.620;2022-11-20T12:53:10;7.50;1.00
19242;DHT22;9755;47.790;9.620;2022-11-20T12:55:47;7.60;1.00
19242;DHT22;9755;47.790;9.620;2022-11-20T12:58:22;7.70;99.90
19242;DHT22;9755;47.790;9.620;2022-11-20T13:01:00;7.90;99.90
19242;DHT22;9755;47.790;9.620;2022-11-20T13:03:41;8.00;99.90
19242;DHT22;9755;47.790;9.620;2022-11-20T13:06:15;8.10;74.60
19242;DHT22;9755;47.790;9.620;2022-11-20T13:08:48;8.20;11.00
19242;DHT22;9755;47.790;9.620;2022-11-20T13:11:21;8.10;1.00
19242;DHT22;9755;47.790;9.620;2022-11-20T13:14:09;8.20;1.00
19242;DHT22;9755;47.790;9.620;2022-11-20T13:16:44;8.60;1.00
19242;DHT22;9755;47.790;9.620;2022-11-20T13:19:13;9.00;1.00
19242;DHT22;9755;47.790;9.620;2022-11-20T13:21:43;9.10;1.00
19242;DHT22;9755;47.790;9.620;2022-11-20T13:24:25;8.80;1.00
19242;DHT22;9755;47.790;9.620;2022-11-20T13:27:19;8.60;1.00
19242;DHT22;9755;47.790;9.620;2022-11-20T13:30:01;8.50;1.00
19242;DHT22;9755;47.790;9.620;2022-11-20T13:32:29;8.40;1.00
19242;DHT22;9755;47.790;9.620;2022-11-20T13:34:59;8.70;1.00
19242;DHT22;9755;47.790;9.620;2022-11-20T13:37:29;8.90;1.00
19242;DHT22;9755;47.790;9.620;2022-11-20T13:40:22;8.90;1.00
19242;DHT22;9755;47.790;9.620;2022-11-20T13:42:56;8.80;1.00
19242;DHT22;9755;47.790;9.620;2022-11-20T13:45:30;8.40;1.00
19242;DHT22;9755;47.790;9.620;2022-11-20T13:47:58;8.10;1.00
19242;DHT22;9755;47.790;9.620;2022-11-20T13:50:40;8.00;1.00
19242;DHT22;9755;47.790;9.620;2022-11-20T13:53:26;8.10;1.00
19242;DHT22;9755;47.790;9.620;2022-11-20T13:56:00;8.30;1.00
19242;DHT22;9755;47.790;9.620;2022-11-20T13:58:40;8.50;1.00
19242;DHT22;9755;47.790;9.620;2022-11-20T14:01:17;8.60;1.00
19242;DHT22;9755;47.790;9.620;2022-11-20T14:03:46;8.70;1.00
19242;DHT22;9755;47.790;9.620;2022-11-20T14:06:19;8.60;1.00
19242;DHT22;9755;47.790;9.620;2022-11-20T14:08:50;8.40;1.00
19242;DHT22;9755;47.790;9.620;2022-11-20T14:11:18;8.30;1.00
19242;DHT22;9755;47.790;9.620;2022-11-20T14:13:55;8.10;1.00
19242;DHT22;9755;47.790;9.620;2022-11-20T14:16:25;8.00;1.00
19242;DHT22;9755;47.790;9.620;2022-11-20T14:18:53;8.00;1.00
19242;DHT22;9755;47.790;9.620;2022-11-20T14:21:24;7.90;1.00
19242;DHT22;9755;47.790;9.620;2022-11-20T14:24:03;7.80;1.00
19242;DHT22;9755;47.790;9.620;2022-11-20T14:26:31;7.80;1.00
19242;DHT22;9755;47.790;9.620;2022-11-20T14:28:58;7.80;1.00
19242;DHT22;9755;47.790;9.620;2022-11-20T14:31:27;7.80;1.00
19242;DHT22;9755;47.790;9.620;2022-11-20T14:33:55;7.80;1.00
19242;DHT22;9755;47.790;9.620;2022-11-20T14:36:24;7.70;1.00
19242;DHT22;9755;47.790;9.620;2022-11-20T14:38:52;7.70;1.00
19242;DHT22;9755;47.790;9.620;2022-11-20T14:41:21;7.50;1.00
19242;DHT22;9755;47.790;9.620;2022-11-20T14:43:52;7.60;1.00
19242;DHT22;9755;47.790;9.620;2022-11-20T14:46:21;7.60;1.00
19242;DHT22;9755;47.790;9.620;2022-11-20T14:48:51;7.60;1.00
19242;DHT22;9755;47.790;9.620;2022-11-20T14:51:28;7.60;1.00
19242;DHT22;9755;47.790;9.620;2022-11-20T14:53:56;7.50;1.00
19242;DHT22;9755;47.790;9.620;2022-11-20T14:56:24;7.50;1.00
19242;DHT22;9755;47.790;9.620;2022-11-20T14:58:57;7.40;1.00
19242;DHT22;9755;47.790;9.620;2022-11-20T15:01:29;7.40;43.20
19242;DHT22;9755;47.790;9.620;2022-11-20T15:04:06;7.30;18.80
19242;DHT22;9755;47.790;9.620;2022-11-20T15:06:33;7.20;28.60
19242;DHT22;9755;47.790;9.620;2022-11-20T15:09:02;7.10;95.10
19242;DHT22;9755;47.790;9.620;2022-11-20T15:11:32;7.00;99.90
19242;DHT22;9755;47.790;9.620;2022-11-20T15:14:03;6.90;99.90
19242;DHT22;9755;47.790;9.620;2022-11-20T15:16:31;6.80;99.90
19242;DHT22;9755;47.790;9.620;2022-11-20T15:18:58;6.70;99.90
19242;DHT22;9755;47.790;9.620;2022-11-20T15:21:28;6.60;1.00
19242;DHT22;9755;47.790;9.620;2022-11-20T15:23:55;6.40;1.00
19242;DHT22;9755;47.790;9.620;2022-11-20T15:26:25;6.40;1.00
19242;DHT22;9755;47.790;9.620;2022-11-20T15:28:54;6.30;1.00
19242;DHT22;9755;47.790;9.620;2022-11-20T15:31:22;6.10;1.00
19242;DHT22;9755;47.790;9.620;2022-11-20T15:33:50;6.00;99.90
19242;DHT22;9755;47.790;9.620;2022-11-20T15:36:17;5.90;99.90
19242;DHT22;9755;47.790;9.620;2022-11-20T15:38:45;5.90;1.00
19242;DHT22;9755;47.790;9.620;2022-11-20T15:41:12;5.80;1.00
19242;DHT22;9755;47.790;9.620;2022-11-20T15:43:39;5.80;1.00
19242;DHT22;9755;47.790;9.620;2022-11-20T15:46:10;5.90;1.00
19242;DHT22;9755;47.790;9.620;2022-11-20T15:48:39;5.80;1.00
19242;DHT22;9755;47.790;9.620;2022-11-20T15:51:18;5.60;1.00
19242;DHT22;9755;47.790;9.620;2022-11-20T15:53:49;5.30;1.00
19242;DHT22;9755;47.790;9.620;2022-11-20T15:56:16;5.20;1.00
19242;DHT22;9755;47.790;9.620;2022-11-20T15:58:43;5.20;1.00
19242;DHT22;9755;47.790;9.620;2022-11-20T16:01:12;5.00;99.90
19242;DHT22;9755;47.790;9.620;2022-11-20T16:03:40;5.00;99.90
19242;DHT22;9755;47.790;9.620;2022-11-20T16:06:07;5.10;99.90
19242;DHT22;9755;47.790;9.620;2022-11-20T16:08:34;5.10;1.00
19242;DHT22;9755;47.790;9.620;2022-11-20T16:11:03;5.00;1.00
19242;DHT22;9755;47.790;9.620;2022-11-20T16:13:31;4.80;1.00
19242;DHT22;9755;47.790;9.620;2022-11-20T16:16:19;4.70;1.00
19242;DHT22;9755;47.790;9.620;2022-11-20T16:18:48;4.60;1.00
19242;DHT22;9755;47.790;9.620;2022-11-20T16:21:15;4.40;90.60
19242;DHT22;9755;47.790;9.620;2022-11-20T16:23:42;4.40;99.90
19242;DHT22;9755;47.790;9.620;2022-11-20T16:26:12;4.40;99.90
19242;DHT22;9755;47.790;9.620;2022-11-20T16:28:40;4.40;1.00
19242;DHT22;9755;47.790;9.620;2022-11-20T16:31:11;4.50;99.90